Pietralata Flying Field

IT-0499 · Apulia, Włochy

Historia METAR IT-0499 · Pietralata Flying Field

Poniżej widzisz METAR-y z ostatnich kilku dni. Wybierz rok, aby przeglądać starsze METAR-y, począwszy od roku 2007.

15 lipca 2024

Czas Kod Pogoda Temp. Widoczność Sufit Wiatr METAR/SPECI
03:55
V
25 °C 10 km+ - 360° 360° 0 kt METAR LIBN 150155Z 00000KT CAVOK 25/25 Q1011
02:55
V
28 °C 10 km+ - 340° 340° 6 kt METAR LIBN 150055Z 34006KT CAVOK 28/27 Q1011
01:55
V
28 °C 10 km+ - 340° 340° 6 kt METAR LIBN 142355Z 34006KT CAVOK 28/27 Q1011
00:55
V
28 °C 10 km+ - 350° 350° 4 kt METAR LIBN 142255Z 35004KT CAVOK 28/27 Q1011

14 lipca 2024

Czas Kod Pogoda Temp. Widoczność Sufit Wiatr METAR/SPECI
23:55
V
28 °C 10 km+ - 340° 340° 5 kt METAR LIBN 142155Z 34005KT CAVOK 28/27 Q1011
22:55
V
29 °C 10 km+ - 360° 360° 5 kt METAR LIBN 142055Z 36005KT CAVOK 29/27 Q1011
21:55
V
29 °C 10 km+ - 360° 360° 5 kt METAR LIBN 141955Z 36005KT CAVOK 29/27 Q1011
20:55
V
30 °C 10 km+ - 010° 010° 6 kt METAR LIBN 141855Z 01006KT CAVOK 30/27 Q1011
19:55
V
32 °C 10 km+ - 350° 350° 8 kt METAR LIBN 141755Z 35008KT CAVOK 32/25 Q1010
18:55
V
33 °C 10 km+ - 010° 010° 9 kt METAR LIBN 141655Z 01009KT CAVOK 33/24 Q1010
17:55
V
35 °C 10 km+ - 010° 010° 10 kt METAR LIBN 141555Z 01010KT CAVOK 35/20 Q1010 RMK SCT SCT200 VIS MIN 9999 WIND THR14 36012KT WIND THR32 36012KT BLU
16:55
V
37 °C 10 km+ - 360° 360° 9 kt METAR LIBN 141455Z 36009KT CAVOK 37/21 Q1010 RMK SKC VIS MIN 9999 WIND THR14 01009KT WIND THR32 03010KT BLU
15:55
V
38 °C 10 km+ - 030° 030° 9 kt METAR LIBN 141355Z 03009KT CAVOK 38/20 Q1010
14:55
V
39 °C 10 km+ - 030° 030° 6 kt METAR LIBN 141255Z 03006KT CAVOK 39/19 Q1010
13:55
V
39 °C 10 km+ - 050° 050° 7 kt METAR LIBN 141155Z 05007KT CAVOK 39/19 Q1010
12:55
V
38 °C 10 km+ - 030° 030° 7 kt METAR LIBN 141055Z 03007KT CAVOK 38/19 Q1010 RMK SKC VIS MIN 9999 WIND THR14 07007KT WIND THR32 36006KT BLU
11:55
V
37 °C 10 km+ - 350° 350° 7 kt METAR LIBN 140955Z 35007KT CAVOK 37/19 Q1011 RMK SKC VIS MIN 9999 WIND THR14 06006KT WIND THR32 02006KT BLU
10:55
V
37 °C 10 km+ - 350° 350° 7 kt METAR LIBN 140855Z 35007KT CAVOK 37/20 Q1011 RMK SKC VIS MIN 9999 WIND THR14 36009KT WIND THR32 34007KT BLU
09:55
V
35 °C 10 km+ - 350° 350° 5 kt METAR LIBN 140755Z 35005KT CAVOK 35/20 Q1011
08:55
V
33 °C 10 km+ - 320° 320° 4 kt METAR LIBN 140655Z 32004KT CAVOK 33/21 Q1010 RMK SKC VIS MIN 9999 WIND THR14 31004KT WIND THR32 34004KT BLU
07:55
V
30 °C 10 km+ - 140° 140° 4 kt METAR LIBN 140555Z 14004KT CAVOK 30/23 Q1011 RMK SKC VIS MIN 9999 WIND THR14 14004KT WIND THR32 14004KT BLU
06:55
V
26 °C 10 km+ - 130° 130° 2 kt METAR LIBN 140455Z 13002KT CAVOK 26/23 Q1010
05:55
V
24 °C 10 km+ - Var Var 2 kt METAR LIBN 140355Z VRB02KT CAVOK 24/23 Q1010 RMK SKC VIS MIN 9999 WIND THR14 VRB02KT WIND THR32 VRB02KT BLU
04:55
V
24 °C 10 km+ - 080° 080° 2 kt METAR LIBN 140255Z 08002KT CAVOK 24/22 Q1009 RMK SKC VIS MIN 9999 WIND THR14 VRB02KT WIND THR32 VRB02KT BLU
03:55
V
25 °C 10 km+ - 360° 360° 0 kt METAR LIBN 140155Z 00000KT CAVOK 25/23 Q1010 RMK SKC VIS MIN 9999 WIND THR14 00000KT WIND THR32 00000KT BLU
02:55
V
25 °C 10 km+ - 160° 160° 2 kt METAR LIBN 140055Z 16002KT CAVOK 25/24 Q1010 RMK SKC VIS MIN 9999 WIND THR14 VRB02KT WIND THR32 VRB02KT BLU
01:55
V
25 °C 10 km+ - 180° 180° 2 kt METAR LIBN 132355Z 18002KT CAVOK 25/25 Q1010
00:55
V
25 °C 10 km+ - 360° 360° 0 kt METAR LIBN 132255Z 00000KT CAVOK 25/25 Q1010

13 lipca 2024

Czas Kod Pogoda Temp. Widoczność Sufit Wiatr METAR/SPECI
23:55
V
27 °C 10 km+ - 360° 360° 0 kt METAR LIBN 132155Z 00000KT CAVOK 27/26 Q1010 RMK SKC VIS MIN 9999 WIND THR14 00000KT WIND THR32 00000KT BLU
22:55
V
28 °C 10 km+ - 330° 330° 2 kt METAR LIBN 132055Z 33002KT CAVOK 28/26 Q1010
21:55
V
28 °C 10 km+ - 270° 270° 2 kt METAR LIBN 131955Z 27002KT CAVOK 28/26 Q1009 RMK SKC VIS MIN 9999 WIND THR14 VRB02KT WIND THR32 VRB02KT BLU
20:55
V
30 °C 10 km+ - 260° 260° 4 kt METAR LIBN 131855Z 26004KT CAVOK 30/26 Q1009 RMK SKC VIS MIN 9999 WIND THR14 26002KT WIND THR32 26003KT BLU
19:55
V
34 °C 10 km+ - 260° 260° 6 kt METAR LIBN 131755Z 26006KT CAVOK 34/20 Q1009
18:55
V
35 °C 10 km+ - 240° 240° 8 kt METAR LIBN 131655Z 24008KT CAVOK 35/21 Q1009
17:55
V
37 °C 10 km+ - 230° 230° 8 kt METAR LIBN 131555Z 23008KT CAVOK 37/20 Q1009 RMK SKC VIS MIN 9999 WIND THR14 24008KT WIND THR32 23008KT BLU
16:55
V
37 °C 10 km+ - 240° 240° 9 kt METAR LIBN 131455Z 24009KT CAVOK 37/22 Q1009 RMK SKC VIS MIN 9999 WIND THR14 24009KT WIND THR32 24009KT BLU
15:55
V
38 °C 10 km+ - 250° 250° 9 kt METAR LIBN 131355Z 25009KT CAVOK 38/24 Q1009 RMK FEW FEW080 VIS MIN 9999 WIND THR14 21008KT WIND THR32 22009KT BLU
14:55
V
38 °C 10 km+ - 250° 250° 7 kt METAR LIBN 131255Z 25007KT CAVOK 38/23 Q1009
13:55
V
38 °C 10 km+ - 250° 250° 9 kt METAR LIBN 131155Z 25009KT CAVOK 38/25 Q1009
12:55
V
36 °C 10 km+ - 230° 230° 8 kt METAR LIBN 131055Z 23008KT CAVOK 36/24 Q1010 RMK SKC VIS MIN 9999 WIND THR14 23007KT WIND THR32 25009KT BLU
11:55
V
35 °C 10 km+ - 230° 230° 9 kt METAR LIBN 130955Z 23009KT CAVOK 35/25 Q1010 RMK SKC VIS MIN 9999 WIND THR14 23010KT WIND THR32 24009KT BLU
10:55
V
36 °C 10 km+ - 260° 260° 3 kt METAR LIBN 130855Z 26003KT CAVOK 36/22 Q1010 RMK SKC VIS MIN 9999 WIND THR14 15003KT WIND THR32 28003KT BLU
09:55
V
35 °C 10 km+ - 080° 080° 5 kt METAR LIBN 130755Z 08005KT CAVOK 35/23 Q1011 RMK SKC VIS MIN 9999 WIND THR14 10004KT WIND THR32 10004KT BLU
08:55
V
33 °C 10 km+ - 110° 110° 5 kt METAR LIBN 130655Z 11005KT CAVOK 33/21 Q1010 RMK SKC VIS MIN 9999 WIND THR14 13005KT WIND THR32 13005KT BLU
07:55
V
30 °C 10 km+ - 130° 130° 4 kt METAR LIBN 130555Z 13004KT CAVOK 30/26 Q1010 RMK SKC VIS MIN 9999 WIND THR14 13004KT WIND THR32 13004KT BLU
06:55
V
27 °C 10 km+ - Var Var 2 kt METAR LIBN 130455Z VRB02KT CAVOK 27/25 Q1010
05:55
V
24 °C 10 km+ - Var Var 2 kt METAR LIBN 130355Z VRB02KT CAVOK 24/22 Q1009 RMK SKC VIS MIN 9999 WIND THR14 VRB02KT WIND THR32 VRB02KT BLU
04:55
V
25 °C 10 km+ - Var Var 2 kt METAR LIBN 130255Z VRB02KT CAVOK 25/23 Q1009 RMK SKC VIS MIN 9999 WIND THR14 VRB02KT WIND THR32 VRB02KT BLU
03:55
V
25 °C 10 km+ - Var Var 2 kt METAR LIBN 130155Z VRB02KT CAVOK 25/22 Q1009
02:55
V
25 °C 10 km+ - Var Var 2 kt METAR LIBN 130055Z VRB02KT CAVOK 25/22 Q1009
01:55
V
25 °C 10 km+ - Var Var 2 kt METAR LIBN 122355Z VRB02KT CAVOK 25/22 Q1010
00:55
V
27 °C 10 km+ - Var Var 2 kt METAR LIBN 122255Z VRB02KT CAVOK 27/23 Q1010 RMK SKC VIS MIN 9999 WIND THR14 VRB02KT WIND THR32 VRB02KT BLU

12 lipca 2024

Czas Kod Pogoda Temp. Widoczność Sufit Wiatr METAR/SPECI
23:55
V
27 °C 10 km+ - Var Var 2 kt METAR LIBN 122155Z VRB02KT CAVOK 27/23 Q1010
22:55
V
28 °C 10 km+ - Var Var 2 kt METAR LIBN 122055Z VRB02KT CAVOK 28/23 Q1010 RMK SKC VIS MIN 9999 WIND THR14 VRB02KT WIND THR32 VRB02KT BLU
21:55
V
29 °C 10 km+ - Var Var 2 kt METAR LIBN 121955Z VRB02KT CAVOK 29/23 Q1010
20:55
V
29 °C 10 km+ - Var Var 3 kt METAR LIBN 121855Z VRB03KT CAVOK 29/23 Q1010
19:55
V
31 °C 10 km+ - 230° 230° 6 kt METAR LIBN 121755Z 23006KT CAVOK 31/22 Q1010 RMK SKC VIS MIN 9999 WIND THR14 22003KT WIND THR32 24005KT BLU
18:55
V
33 °C 10 km+ - 230° 230° 8 kt METAR LIBN 121655Z 23008KT CAVOK 33/21 Q1010
17:55
V
36 °C 10 km+ - 250° 250° 7 kt METAR LIBN 121555Z 25007KT CAVOK 36/21 Q1010 RMK SKC VIS MIN 9999 WIND THR14 24007KT WIND THR32 25007KT BLU
16:55
V
36 °C 10 km+ - 230° 230° 6 kt METAR LIBN 121455Z 23006KT CAVOK 36/21 Q1010 RMK SKC VIS MIN 9999 WIND THR14 25005KT WIND THR32 23010KT BLU
15:55
V
37 °C 10 km+ - 010° 010° 8 kt METAR LIBN 121355Z 01008KT 9999 FEW030 37/20 Q1010 RMK FEW VIS MIN 9999 WIND THR14 03009KT WIND THR32 02007KT BLU
14:55
V
37 °C 10 km+ - 010° 010° 9 kt METAR LIBN 121255Z 01009KT CAVOK 37/21 Q1011 RMK SKC VIS MIN 9999 WIND THR14 02008KT WIND THR32 02008KT BLU
13:55
V
37 °C 10 km+ - 020° 020° 8 kt METAR LIBN 121155Z 02008KT CAVOK 37/20 Q1011 RMK SKC VIS MIN 9999 WIND THR14 04006KT WIND THR32 03008KT BLU
12:55
V
36 °C 10 km+ - 340° 340° 4 kt METAR LIBN 121055Z 34004KT CAVOK 36/20 Q1012 RMK SKC VIS MIN 9999 WIND THR14 36007KT WIND THR32 01006KT BLU
11:55
V
35 °C 10 km+ - 320° 320° 5 kt METAR LIBN 120955Z 32005KT CAVOK 35/21 Q1012 RMK SKC VIS MIN 9999 WIND THR14 35005KT WIND THR32 01007KT BLU
10:55
V
34 °C 10 km+ - 030° 030° 5 kt METAR LIBN 120855Z 03005KT CAVOK 34/20 Q1012 RMK SKC VIS MIN 9999 WIND THR14 35007KT WIND THR32 36005KT BLU
09:55
V
33 °C 10 km+ - 350° 350° 5 kt METAR LIBN 120755Z 35005KT CAVOK 33/20 Q1012
08:55
V
31 °C 10 km+ - 010° 010° 5 kt METAR LIBN 120655Z 01005KT CAVOK 31/21 Q1013
07:55
V
30 °C 10 km+ - 360° 360° 5 kt METAR LIBN 120555Z 36005KT CAVOK 30/23 Q1013 RMK SKC VIS MIN 9999 WIND THR14 01006KT WIND WIND THR32 03004KT BLU
Zgłoś zmianę